Fort Hood, Texas
Current Conditions -  °F | °C
As of 7:56 AM on Monday 24 Nov 2014 (Local Time) from KHLR Reporting Station
Clear Clear  
Wind Chill:   Ceiling: Unl
Heat Index:   Visibility: 10mi
Dew Point:   Wind: 12mph
Humidity: 59%   Direction: 290°WNW
Pressure: 30.03"   Gusts: NA
Location:  31.2151°N, 97.7405°W
Report Text: KHLR 241356Z AUTO 29010KT 10SM CLR 09/02 A3003 RMK AO2 SLP199 T00940017 $
Loading
Personal Weather Stations






























Interactive Weather Map New forecast layout! Learn more

10-Day Weather Forecast

Advertisements
Track Severe Weather on mobile